Time;durP1;ratioP1;P1;durP2;ratioP2;P2;SDS_P1;SDS_P2;PMS_P1;PMS_P2;Temp;Humidity;BMP_temperature;BMP_pressure;BME280_temperature;BME280_humidity;BME280_pressure;Samples;Min_cycle;Max_cycle;Signal;HPM_P1;HPM_P2
2023/12/11 00:01:21;;;;;;;8.20;2.35;;;10.20;99.90;;;;;;5147627;27;20067;-51
2023/12/11 00:03:47;;;;;;;9.55;2.40;;;10.20;99.90;;;;;;5146663;27;20058;-50
2023/12/11 00:06:12;;;;;;;11.02;2.78;;;10.20;99.90;;;;;;5147763;27;20084;-50
2023/12/11 00:08:38;;;;;;;6.10;2.10;;;10.20;99.90;;;;;;5146442;27;20098;-50
2023/12/11 00:11:04;;;;;;;13.02;2.60;;;10.20;99.90;;;;;;5147389;27;20031;-51
2023/12/11 00:13:29;;;;;;;7.72;2.33;;;10.10;99.90;;;;;;5147432;27;20030;-50
2023/12/11 00:15:55;;;;;;;7.97;2.05;;;10.10;99.90;;;;;;5146417;27;20042;-47
2023/12/11 00:18:21;;;;;;;8.63;2.35;;;10.10;99.90;;;;;;5146214;27;20069;-48
2023/12/11 00:20:46;;;;;;;9.80;2.53;;;10.10;99.90;;;;;;5147593;27;20027;-50
2023/12/11 00:23:12;;;;;;;9.38;2.50;;;10.10;99.90;;;;;;5146070;27;20015;-50
2023/12/11 00:25:43;;;;;;;10.00;2.35;;;10.10;99.90;;;;;;5147306;27;20084;-51
2023/12/11 00:28:09;;;;;;;9.60;2.42;;;10.10;99.90;;;;;;5129965;27;20027;-47
2023/12/11 00:30:35;;;;;;;10.23;2.60;;;10.10;99.90;;;;;;5147385;27;20129;-50
2023/12/11 00:33:00;;;;;;;9.43;2.80;;;10.10;99.90;;;;;;5147195;27;20076;-50
2023/12/11 00:35:26;;;;;;;7.15;2.67;;;10.10;99.90;;;;;;5147125;27;20222;-47
2023/12/11 00:37:52;;;;;;;7.43;2.38;;;10.10;99.90;;;;;;5147171;27;20031;-47
2023/12/11 00:40:18;;;;;;;11.10;2.92;;;10.10;99.90;;;;;;5147228;27;20023;-46
2023/12/11 00:42:43;;;;;;;9.32;2.72;;;10.10;99.90;;;;;;5146776;27;20080;-47
2023/12/11 00:45:11;;;;;;;11.57;3.00;;;10.00;99.90;;;;;;5147096;27;20015;-47
2023/12/11 00:47:37;;;;;;;8.77;2.63;;;10.10;99.90;;;;;;5147028;27;20045;-47
2023/12/11 00:50:03;;;;;;;11.48;2.75;;;10.10;99.90;;;;;;5145700;27;20019;-47
2023/12/11 00:52:29;;;;;;;8.48;2.58;;;10.10;99.90;;;;;;5146024;27;20095;-47
2023/12/11 00:54:54;;;;;;;8.95;2.60;;;10.10;99.90;;;;;;5146806;27;20193;-47
2023/12/11 00:57:22;;;;;;;9.27;3.03;;;10.10;99.90;;;;;;5147027;27;20026;-47
2023/12/11 00:59:47;;;;;;;8.20;3.08;;;10.10;99.90;;;;;;5147088;27;20023;-48
2023/12/11 01:02:13;;;;;;;8.45;2.50;;;10.10;99.90;;;;;;5145917;27;20061;-47
2023/12/11 01:04:39;;;;;;;11.27;3.00;;;10.10;99.90;;;;;;5146926;28;20035;-47
2023/12/11 01:07:05;;;;;;;12.90;2.90;;;10.10;99.90;;;;;;5146765;28;20193;-47
2023/12/11 01:09:30;;;;;;;11.93;3.47;;;10.10;99.90;;;;;;5146781;28;20094;-48
2023/12/11 01:11:56;;;;;;;12.10;3.42;;;10.10;99.90;;;;;;5146792;28;20212;-46
2023/12/11 01:14:22;;;;;;;12.73;2.40;;;10.10;99.90;;;;;;5146734;28;20023;-48
2023/12/11 01:16:47;;;;;;;16.40;2.67;;;10.20;99.90;;;;;;5146638;28;20023;-48
2023/12/11 01:19:13;;;;;;;10.27;2.55;;;10.20;99.90;;;;;;5146723;28;20019;-47
2023/12/11 01:21:38;;;;;;;10.13;2.50;;;10.20;99.90;;;;;;5146478;28;20042;-47
2023/12/11 01:24:04;;;;;;;12.88;2.88;;;10.20;99.90;;;;;;5146718;28;20033;-47
2023/12/11 01:26:30;;;;;;;9.57;2.42;;;10.20;99.90;;;;;;5146660;28;20023;-46
2023/12/11 01:28:56;;;;;;;12.88;3.63;;;10.10;99.90;;;;;;5146649;28;20304;-46
2023/12/11 01:31:21;;;;;;;10.57;2.63;;;10.10;99.90;;;;;;5146698;28;20193;-46
2023/12/11 01:33:47;;;;;;;6.82;2.15;;;10.10;99.90;;;;;;5146510;28;20072;-46
2023/12/11 01:36:13;;;;;;;8.25;2.20;;;10.10;99.90;;;;;;5148303;27;20058;-46
2023/12/11 01:38:38;;;;;;;9.55;2.42;;;10.10;99.90;;;;;;5150218;27;20031;-47
2023/12/11 01:41:04;;;;;;;14.05;2.88;;;10.10;99.90;;;;;;5150344;27;20022;-47
2023/12/11 01:43:30;;;;;;;7.22;2.53;;;10.10;99.90;;;;;;5150563;27;20079;-46
2023/12/11 01:46:03;;;;;;;13.45;2.63;;;10.00;99.90;;;;;;5150571;27;20103;-47
2023/12/11 01:48:29;;;;;;;10.15;3.03;;;10.00;99.90;;;;;;5150424;27;20027;-47
2023/12/11 01:50:54;;;;;;;7.63;2.30;;;10.00;99.90;;;;;;5132172;27;20049;-48
2023/12/11 01:53:20;;;;;;;9.32;2.58;;;10.00;99.90;;;;;;5149210;27;20031;-47
2023/12/11 01:55:47;;;;;;;12.57;3.22;;;10.00;99.90;;;;;;5149264;27;20088;-47
2023/12/11 01:58:12;;;;;;;14.32;3.17;;;10.00;99.90;;;;;;5149373;27;20030;-47
2023/12/11 02:00:38;;;;;;;10.02;3.22;;;10.00;99.90;;;;;;5150251;27;20062;-47
2023/12/11 02:03:04;;;;;;;8.30;2.75;;;10.00;99.90;;;;;;5149919;27;20023;-47
2023/12/11 02:05:30;;;;;;;11.75;2.40;;;9.90;99.90;;;;;;5149253;27;20027;-48
2023/12/11 02:07:55;;;;;;;9.25;2.63;;;9.90;99.90;;;;;;5148621;27;20051;-47
2023/12/11 02:10:21;;;;;;;11.00;2.58;;;10.00;99.90;;;;;;5148699;27;20046;-47
2023/12/11 02:12:47;;;;;;;13.73;2.85;;;10.00;99.90;;;;;;5149951;27;20303;-47
2023/12/11 02:15:12;;;;;;;15.10;2.47;;;10.00;99.90;;;;;;5148671;27;20027;-47
2023/12/11 02:17:38;;;;;;;8.35;2.40;;;10.00;99.90;;;;;;5149756;27;20124;-50
2023/12/11 02:20:05;;;;;;;13.48;2.78;;;9.90;99.90;;;;;;5149889;27;20019;-47
2023/12/11 02:22:31;;;;;;;10.98;3.03;;;9.90;99.90;;;;;;5149771;27;20048;-48
2023/12/11 02:25:00;;;;;;;15.20;2.60;;;9.90;99.90;;;;;;5149717;27;20023;-46
2023/12/11 02:27:26;;;;;;;11.23;2.70;;;9.90;99.90;;;;;;5148723;27;20018;-50
2023/12/11 02:29:54;;;;;;;11.82;2.60;;;9.90;99.90;;;;;;5148656;27;20031;-50
2023/12/11 02:32:20;;;;;;;9.75;2.40;;;9.80;99.90;;;;;;5149618;27;20168;-47
2023/12/11 02:34:47;;;;;;;11.18;2.10;;;9.70;99.90;;;;;;5149768;27;20027;-50
2023/12/11 02:37:13;;;;;;;15.70;2.88;;;9.70;99.90;;;;;;5148429;27;20103;-51
2023/12/11 02:39:39;;;;;;;10.52;2.40;;;9.60;99.90;;;;;;5149552;27;20030;-50
2023/12/11 02:42:05;;;;;;;12.50;2.75;;;9.60;99.90;;;;;;5149152;27;20022;-51
2023/12/11 02:44:30;;;;;;;9.93;2.80;;;9.50;99.90;;;;;;5148304;27;20039;-47
2023/12/11 02:46:56;;;;;;;13.32;2.38;;;9.50;99.90;;;;;;5148963;27;20090;-47
2023/12/11 02:49:22;;;;;;;12.90;2.55;;;9.50;99.90;;;;;;5149166;27;20015;-47
2023/12/11 02:51:47;;;;;;;14.00;2.42;;;9.60;99.90;;;;;;5148294;27;20031;-47
2023/12/11 02:54:13;;;;;;;8.07;2.30;;;9.60;99.90;;;;;;5149200;27;20116;-47
2023/12/11 02:56:40;;;;;;;9.93;2.72;;;9.60;99.90;;;;;;5148739;27;20023;-50
2023/12/11 02:59:05;;;;;;;10.18;2.20;;;9.60;99.90;;;;;;5147911;27;20098;-50
2023/12/11 03:01:31;;;;;;;9.93;2.60;;;9.50;99.90;;;;;;5130760;27;20042;-48
2023/12/11 03:03:57;;;;;;;11.30;2.35;;;9.50;99.90;;;;;;5149164;27;20027;-51
2023/12/11 03:06:22;;;;;;;14.40;2.83;;;9.50;99.90;;;;;;5147847;27;20038;-51
2023/12/11 03:08:48;;;;;;;11.20;2.03;;;9.50;99.90;;;;;;5147577;27;20051;-50
2023/12/11 03:11:14;;;;;;;10.90;2.80;;;9.50;99.90;;;;;;5148878;27;20042;-51
2023/12/11 03:13:39;;;;;;;15.48;3.33;;;9.50;99.90;;;;;;5148565;27;20041;-51
2023/12/11 03:16:05;;;;;;;13.30;2.97;;;9.50;99.90;;;;;;5148688;27;20038;-50
2023/12/11 03:18:31;;;;;;;8.43;2.10;;;9.50;99.90;;;;;;5148746;27;20185;-50
2023/12/11 03:20:57;;;;;;;12.93;2.63;;;9.50;99.90;;;;;;5148601;27;20078;-49
2023/12/11 03:23:22;;;;;;;12.55;2.60;;;9.50;99.90;;;;;;5148581;27;20082;-50
2023/12/11 03:25:48;;;;;;;12.35;2.75;;;9.50;99.90;;;;;;5148556;27;20076;-50
2023/12/11 03:28:14;;;;;;;10.93;2.97;;;9.40;99.90;;;;;;5148536;27;20027;-50
2023/12/11 03:30:40;;;;;;;15.13;2.92;;;9.40;99.90;;;;;;5148536;27;20025;-50
2023/12/11 03:33:05;;;;;;;16.80;3.40;;;9.50;99.90;;;;;;5148218;27;20027;-50
2023/12/11 03:35:31;;;;;;;15.93;3.15;;;9.60;99.90;;;;;;5148085;27;20045;-50
2023/12/11 03:37:57;;;;;;;19.77;3.63;;;9.60;99.90;;;;;;5148349;27;20299;-50
2023/12/11 03:40:23;;;;;;;21.15;3.40;;;9.70;99.90;;;;;;5147302;27;20189;-50
2023/12/11 03:42:48;;;;;;;22.45;3.65;;;9.70;99.90;;;;;;5148391;27;20140;-50
2023/12/11 03:45:14;;;;;;;17.05;3.38;;;9.80;99.90;;;;;;5129877;27;20090;-51
2023/12/11 03:47:40;;;;;;;18.70;2.95;;;9.70;99.90;;;;;;5147096;27;20285;-50
2023/12/11 03:50:06;;;;;;;15.75;3.65;;;9.70;99.90;;;;;;5148130;27;20038;-50
2023/12/11 03:52:32;;;;;;;17.70;2.83;;;9.80;99.90;;;;;;5147951;27;20045;-50
2023/12/11 03:54:58;;;;;;;23.10;3.03;;;9.70;99.90;;;;;;5129627;27;20094;-50
2023/12/11 03:57:23;;;;;;;16.60;3.03;;;9.70;99.90;;;;;;5146922;27;20031;-50
2023/12/11 03:59:49;;;;;;;13.23;2.80;;;9.70;99.90;;;;;;5147158;27;20027;-50
2023/12/11 04:02:15;;;;;;;13.27;3.25;;;9.70;99.90;;;;;;5147918;27;20099;-47
2023/12/11 04:04:40;;;;;;;12.73;3.08;;;9.70;99.90;;;;;;5146799;27;20732;-47
2023/12/11 04:07:06;;;;;;;12.98;2.55;;;9.70;99.90;;;;;;5147210;27;20042;-47
2023/12/11 04:09:32;;;;;;;9.40;2.35;;;9.70;99.90;;;;;;5147682;27;20154;-51
2023/12/11 04:11:57;;;;;;;13.30;2.60;;;9.70;99.90;;;;;;5147667;27;20023;-50
2023/12/11 04:14:23;;;;;;;9.60;2.40;;;9.70;99.90;;;;;;5147070;27;20030;-55
2023/12/11 04:16:49;;;;;;;10.77;2.13;;;9.70;99.90;;;;;;5147498;27;20031;-50
2023/12/11 04:19:14;;;;;;;10.43;2.45;;;9.70;99.90;;;;;;5147684;27;20049;-50
2023/12/11 04:21:40;;;;;;;7.53;2.20;;;9.70;99.90;;;;;;5147442;27;20081;-51
2023/12/11 04:24:06;;;;;;;9.57;2.33;;;9.70;99.90;;;;;;5147541;27;20031;-50
2023/12/11 04:26:32;;;;;;;10.98;2.35;;;9.70;99.90;;;;;;5147414;27;20033;-50
2023/12/11 04:28:57;;;;;;;13.23;2.30;;;9.70;99.90;;;;;;5146960;27;20031;-50
2023/12/11 04:31:23;;;;;;;9.38;2.30;;;9.70;99.90;;;;;;5147156;27;20223;-47
2023/12/11 04:33:50;;;;;;;10.00;2.70;;;9.70;99.90;;;;;;5147198;27;20027;-47
2023/12/11 04:36:15;;;;;;;10.63;2.50;;;9.70;99.90;;;;;;5146213;27;20083;-47
2023/12/11 04:38:41;;;;;;;11.90;2.28;;;9.60;99.90;;;;;;5146839;27;20027;-47
2023/12/11 04:41:07;;;;;;;11.48;2.60;;;9.60;99.90;;;;;;5147142;27;20177;-48
2023/12/11 04:43:36;;;;;;;8.70;2.20;;;9.60;99.90;;;;;;5146969;27;20019;-47
2023/12/11 04:46:01;;;;;;;7.78;2.50;;;9.60;99.90;;;;;;5146616;27;20037;-49
2023/12/11 04:48:27;;;;;;;8.88;2.15;;;9.60;99.90;;;;;;5147047;27;20030;-48
2023/12/11 04:50:53;;;;;;;12.52;2.53;;;9.60;99.90;;;;;;5146752;27;20031;-50
2023/12/11 04:53:18;;;;;;;8.18;2.15;;;9.60;99.90;;;;;;5145904;27;20312;-50
2023/12/11 04:55:44;;;;;;;8.63;2.10;;;9.60;99.90;;;;;;5145766;27;20031;-49
2023/12/11 04:58:10;;;;;;;9.77;2.47;;;9.60;99.90;;;;;;5146969;27;20043;-49
2023/12/11 05:01:29;;;;;;;8.95;2.55;;;9.60;99.90;;;;;;5145880;27;20224;-47
2023/12/11 05:03:55;;;;;;;11.23;2.40;;;9.60;99.90;;;;;;5146475;27;20307;-47
2023/12/11 05:06:21;;;;;;;9.77;2.13;;;9.60;99.90;;;;;;5146871;28;20031;-48
2023/12/11 05:08:46;;;;;;;9.60;2.30;;;9.60;99.90;;;;;;5146440;28;20078;-47
2023/12/11 05:11:12;;;;;;;10.77;2.45;;;9.60;99.90;;;;;;5149189;27;20284;-47
2023/12/11 05:13:38;;;;;;;8.65;2.35;;;9.70;99.90;;;;;;5150863;27;20046;-47
2023/12/11 05:16:04;;;;;;;11.82;2.80;;;9.70;99.90;;;;;;5151042;27;20079;-47
2023/12/11 05:18:29;;;;;;;5.18;1.70;;;9.80;99.90;;;;;;5151123;27;20034;-47
2023/12/11 05:20:55;;;;;;;10.00;1.92;;;9.80;99.90;;;;;;5150666;27;20019;-47
2023/12/11 05:23:21;;;;;;;8.02;2.00;;;9.80;99.90;;;;;;5150687;27;20027;-47
2023/12/11 05:25:47;;;;;;;5.55;1.55;;;9.80;99.90;;;;;;5150863;27;20203;-48
2023/12/11 05:28:12;;;;;;;6.78;2.45;;;9.80;99.90;;;;;;5150936;27;20035;-50
2023/12/11 05:30:38;;;;;;;8.30;2.15;;;9.80;99.90;;;;;;5149749;27;20098;-50
2023/12/11 05:33:04;;;;;;;6.05;1.63;;;9.80;99.90;;;;;;5150545;27;20284;-50
2023/12/11 05:35:29;;;;;;;5.13;1.20;;;9.70;99.90;;;;;;5149077;27;20038;-50
2023/12/11 05:37:58;;;;;;;7.10;1.55;;;9.70;99.90;;;;;;5150467;27;20069;-48
2023/12/11 05:40:24;;;;;;;5.50;1.20;;;9.60;99.90;;;;;;5150601;27;20054;-49
2023/12/11 05:42:50;;;;;;;4.95;1.20;;;9.60;99.90;;;;;;5150395;27;20189;-50
2023/12/11 05:45:16;;;;;;;6.05;1.10;;;9.50;99.90;;;;;;5150289;27;20022;-50
2023/12/11 05:47:42;;;;;;;6.95;1.95;;;9.40;99.90;;;;;;5150445;27;20054;-48
2023/12/11 05:50:08;;;;;;;6.50;1.42;;;9.40;99.90;;;;;;5150060;27;20090;-50
2023/12/11 05:52:34;;;;;;;6.85;1.25;;;9.30;99.90;;;;;;5150436;27;20019;-49
2023/12/11 05:54:59;;;;;;;5.13;1.58;;;9.30;99.90;;;;;;5149078;27;20108;-52
2023/12/11 05:57:25;;;;;;;4.65;1.30;;;9.30;99.90;;;;;;5149357;27;20022;-50
2023/12/11 05:59:51;;;;;;;6.28;1.30;;;9.30;99.90;;;;;;5150264;27;20276;-50
2023/12/11 06:02:16;;;;;;;7.28;1.70;;;9.20;99.90;;;;;;5150133;27;20019;-50
2023/12/11 06:04:42;;;;;;;5.93;1.40;;;9.10;99.90;;;;;;5149723;27;20042;-50
2023/12/11 06:07:08;;;;;;;6.88;1.52;;;9.10;99.90;;;;;;5131755;27;20079;-49
2023/12/11 06:09:33;;;;;;;5.38;1.27;;;9.00;99.90;;;;;;5148910;27;20027;-48
2023/12/11 06:11:59;;;;;;;7.32;1.30;;;8.90;99.90;;;;;;5148961;27;20096;-46
2023/12/11 06:14:25;;;;;;;6.90;1.50;;;8.90;99.90;;;;;;5149885;27;20029;-46
2023/12/11 06:16:50;;;;;;;7.30;1.30;;;8.80;99.90;;;;;;5150038;27;20324;-46
2023/12/11 06:19:16;;;;;;;5.78;1.48;;;8.80;99.90;;;;;;5149805;27;20087;-47
2023/12/11 06:21:43;;;;;;;7.72;2.05;;;8.80;99.90;;;;;;5149019;27;20091;-46
2023/12/11 06:24:08;;;;;;;3.30;1.15;;;8.80;99.90;;;;;;5149744;27;20019;-47
2023/12/11 06:26:34;;;;;;;4.82;1.15;;;8.90;99.90;;;;;;5149595;27;20234;-46
2023/12/11 06:29:01;;;;;;;6.50;1.10;;;8.90;99.90;;;;;;5148866;27;20292;-46
2023/12/11 06:31:27;;;;;;;4.70;1.20;;;9.00;99.90;;;;;;5149452;27;20072;-46
2023/12/11 06:33:53;;;;;;;5.45;1.10;;;9.10;99.90;;;;;;5148230;27;20035;-49
2023/12/11 06:36:19;;;;;;;3.72;1.05;;;9.10;99.90;;;;;;5149572;27;20019;-50
2023/12/11 06:38:45;;;;;;;3.55;1.27;;;9.20;99.90;;;;;;5149137;27;20090;-50
2023/12/11 06:41:10;;;;;;;6.25;1.30;;;9.20;99.90;;;;;;5149215;27;20027;-49
2023/12/11 06:43:36;;;;;;;6.22;1.30;;;9.20;99.90;;;;;;5148078;27;20019;-50
2023/12/11 06:46:02;;;;;;;6.78;1.27;;;9.30;99.90;;;;;;5149210;27;20046;-49
2023/12/11 06:48:29;;;;;;;5.03;1.73;;;9.30;99.90;;;;;;5148082;27;20035;-50
2023/12/11 06:50:55;;;;;;;6.78;1.42;;;9.30;99.90;;;;;;5148981;27;20304;-49
2023/12/11 06:53:20;;;;;;;5.40;1.20;;;9.30;99.90;;;;;;5147997;27;20038;-50
2023/12/11 06:55:46;;;;;;;6.43;1.35;;;9.30;99.90;;;;;;5148975;27;20095;-50
2023/12/11 06:58:12;;;;;;;6.63;1.27;;;9.40;99.90;;;;;;5149138;27;20011;-50
2023/12/11 07:00:38;;;;;;;4.35;1.10;;;9.40;99.90;;;;;;5149120;27;20039;-50
2023/12/11 07:03:03;;;;;;;6.35;1.30;;;9.40;99.90;;;;;;5148118;27;20027;-50
2023/12/11 07:05:29;;;;;;;4.32;1.08;;;9.40;99.90;;;;;;5148582;27;20295;-50
2023/12/11 07:07:55;;;;;;;5.70;1.20;;;9.40;99.90;;;;;;5148456;27;20058;-50
2023/12/11 07:10:20;;;;;;;7.85;1.42;;;9.40;99.90;;;;;;5147649;27;20027;-50
2023/12/11 07:12:47;;;;;;;4.75;1.25;;;9.40;99.90;;;;;;5148887;27;20030;-50
2023/12/11 07:15:13;;;;;;;5.78;1.40;;;9.40;99.90;;;;;;5148640;27;20022;-49
2023/12/11 07:17:38;;;;;;;5.90;1.40;;;9.40;99.90;;;;;;5147766;27;20035;-49
2023/12/11 07:20:05;;;;;;;4.15;1.15;;;9.40;99.90;;;;;;5148659;27;20041;-49
2023/12/11 07:22:33;;;;;;;5.22;1.48;;;9.30;99.90;;;;;;5147558;27;20181;-50
2023/12/11 07:24:59;;;;;;;4.70;1.00;;;9.30;99.90;;;;;;5148611;27;20288;-49
2023/12/11 07:27:24;;;;;;;3.10;0.90;;;9.30;99.90;;;;;;5148645;27;20022;-47
2023/12/11 07:29:50;;;;;;;6.68;1.20;;;9.30;99.90;;;;;;5148419;27;20038;-46
2023/12/11 07:32:16;;;;;;;4.50;1.48;;;9.30;99.90;;;;;;5148456;27;20040;-50
2023/12/11 07:34:43;;;;;;;3.13;1.25;;;9.30;99.90;;;;;;5146815;27;20038;-50
2023/12/11 07:37:09;;;;;;;7.65;1.27;;;9.20;99.90;;;;;;5130567;27;20031;-50
2023/12/11 07:39:35;;;;;;;5.93;1.40;;;9.20;99.90;;;;;;5148036;27;20028;-47
2023/12/11 07:42:00;;;;;;;7.90;1.30;;;9.20;99.90;;;;;;5148097;27;20015;-47
2023/12/11 07:44:26;;;;;;;3.95;1.40;;;9.20;99.90;;;;;;5148162;27;20034;-50
2023/12/11 07:46:52;;;;;;;5.30;1.30;;;9.20;99.90;;;;;;5147887;27;20040;-47
2023/12/11 07:49:18;;;;;;;5.10;1.25;;;9.20;99.90;;;;;;5147970;27;20199;-50
2023/12/11 07:51:44;;;;;;;5.18;1.20;;;9.20;99.90;;;;;;5146742;27;20039;-48
2023/12/11 07:54:10;;;;;;;4.10;1.55;;;9.20;99.90;;;;;;5147996;27;20023;-49
2023/12/11 07:56:37;;;;;;;1.90;0.85;;;9.20;99.90;;;;;;5147327;27;20084;-48
2023/12/11 07:59:02;;;;;;;5.95;1.40;;;9.30;99.90;;;;;;5147621;27;20037;-49
2023/12/11 08:01:31;;;;;;;6.60;1.30;;;9.30;99.90;;;;;;5146340;27;20273;-50
2023/12/11 08:04:01;;;;;;;5.22;1.20;;;9.30;99.90;;;;;;5147527;27;20034;-47
2023/12/11 08:06:27;;;;;;;3.92;1.30;;;9.30;99.90;;;;;;5147409;27;20180;-47
2023/12/11 08:08:52;;;;;;;3.97;1.08;;;9.30;99.90;;;;;;5146325;27;20055;-48
2023/12/11 08:11:24;;;;;;;5.10;1.10;;;9.30;99.90;;;;;;5147492;27;20033;-47
2023/12/11 08:13:50;;;;;;;5.53;1.50;;;9.30;99.90;;;;;;5147641;27;20031;-50
2023/12/11 08:16:16;;;;;;;6.05;1.38;;;9.30;99.90;;;;;;5146269;27;20053;-47
2023/12/11 08:18:43;;;;;;;4.22;1.00;;;9.30;99.90;;;;;;5146865;27;20034;-50
2023/12/11 08:21:09;;;;;;;6.53;1.50;;;9.30;99.90;;;;;;5146247;27;20023;-50
2023/12/11 08:23:34;;;;;;;6.45;1.60;;;9.30;99.90;;;;;;5146922;27;20053;-49
2023/12/11 08:26:00;;;;;;;6.18;1.60;;;9.30;99.90;;;;;;5147189;27;20276;-50
2023/12/11 08:28:26;;;;;;;7.55;1.60;;;9.40;99.90;;;;;;5146098;27;20244;-50
2023/12/11 08:30:51;;;;;;;6.28;1.20;;;9.40;99.90;;;;;;5147027;27;20231;-50
2023/12/11 08:33:17;;;;;;;7.75;1.88;;;9.40;99.90;;;;;;5146814;27;20329;-50
2023/12/11 08:35:43;;;;;;;4.55;1.30;;;9.40;99.90;;;;;;5146926;27;20154;-47
2023/12/11 08:38:09;;;;;;;3.78;1.15;;;9.40;99.90;;;;;;5147002;27;20049;-48
2023/12/11 08:40:35;;;;;;;3.55;1.20;;;9.40;99.90;;;;;;5145658;27;20040;-46
2023/12/11 08:43:00;;;;;;;7.13;1.30;;;9.40;99.90;;;;;;5146670;27;20093;-46
2023/12/11 08:45:26;;;;;;;6.13;1.38;;;9.30;99.90;;;;;;5145712;27;20038;-47
2023/12/11 08:47:52;;;;;;;3.92;1.20;;;9.30;99.90;;;;;;5146461;27;20034;-46
2023/12/11 08:50:17;;;;;;;8.52;1.63;;;9.30;99.90;;;;;;5146276;27;20356;-47
2023/12/11 08:52:43;;;;;;;7.40;2.00;;;9.40;99.90;;;;;;5146487;27;20031;-47
2023/12/11 08:55:09;;;;;;;4.40;1.17;;;9.40;99.90;;;;;;5145409;27;20039;-47
2023/12/11 08:57:35;;;;;;;3.80;1.55;;;9.40;99.90;;;;;;5145387;27;20256;-46
2023/12/11 09:00:03;;;;;;;4.45;1.23;;;9.40;99.90;;;;;;5146651;27;20015;-46
2023/12/11 09:02:28;;;;;;;4.70;1.60;;;9.40;99.90;;;;;;5146483;27;20058;-47
2023/12/11 09:04:54;;;;;;;6.72;1.30;;;9.40;99.90;;;;;;5146419;27;20019;-46
2023/12/11 09:07:20;;;;;;;6.15;1.40;;;9.40;99.90;;;;;;5146169;27;20058;-46
2023/12/11 09:09:45;;;;;;;7.93;1.70;;;9.40;99.90;;;;;;5145357;28;20034;-48
2023/12/11 09:12:11;;;;;;;3.80;1.38;;;9.40;99.90;;;;;;5146698;28;20026;-47
2023/12/11 09:14:37;;;;;;;6.95;1.50;;;9.40;99.90;;;;;;5146057;28;20038;-47
2023/12/11 09:17:03;;;;;;;5.97;1.10;;;9.50;99.90;;;;;;5146124;28;20162;-47
2023/12/11 09:19:28;;;;;;;8.52;1.40;;;9.40;99.90;;;;;;5146600;28;20019;-47
2023/12/11 09:21:54;;;;;;;4.45;1.02;;;9.40;99.90;;;;;;5146348;28;20042;-47
2023/12/11 09:24:20;;;;;;;6.05;1.33;;;9.50;99.90;;;;;;5145252;28;20183;-48
2023/12/11 09:26:45;;;;;;;7.75;1.40;;;9.50;99.90;;;;;;5146105;28;20276;-47
2023/12/11 09:29:11;;;;;;;4.78;1.30;;;9.50;99.90;;;;;;5146440;28;20207;-47
2023/12/11 09:31:38;;;;;;;8.45;1.88;;;9.50;99.90;;;;;;5145988;28;20095;-48
2023/12/11 09:34:03;;;;;;;6.43;1.75;;;9.50;99.90;;;;;;5146481;28;20250;-47
2023/12/11 09:36:29;;;;;;;8.38;1.50;;;9.50;99.90;;;;;;5146228;28;20045;-47
2023/12/11 09:38:55;;;;;;;8.82;2.13;;;9.50;99.90;;;;;;5146234;28;20030;-47
2023/12/11 09:41:21;;;;;;;9.45;1.70;;;9.60;99.90;;;;;;5146234;28;20260;-50
2023/12/11 09:43:48;;;;;;;11.63;2.17;;;9.60;99.90;;;;;;5145390;28;20049;-51
2023/12/11 09:46:16;;;;;;;6.55;2.10;;;9.50;99.90;;;;;;5144758;28;20334;-51
2023/12/11 09:48:42;;;;;;;11.38;2.10;;;9.60;99.90;;;;;;5145214;28;20030;-47
2023/12/11 09:51:08;;;;;;;8.07;1.67;;;9.60;99.90;;;;;;5145145;28;20080;-48
2023/12/11 09:53:35;;;;;;;5.57;1.23;;;9.60;99.90;;;;;;5144985;28;20027;-48
2023/12/11 09:56:01;;;;;;;10.68;2.00;;;9.70;99.90;;;;;;5145077;27;20306;-49
2023/12/11 09:58:26;;;;;;;5.32;1.33;;;9.70;99.90;;;;;;5148557;27;20031;-51
2023/12/11 10:00:52;;;;;;;11.05;1.60;;;9.70;99.90;;;;;;5150079;27;20023;-50
2023/12/11 10:03:18;;;;;;;9.95;2.03;;;9.70;99.90;;;;;;5148791;27;20045;-49
2023/12/11 10:05:44;;;;;;;10.07;4.15;;;9.70;99.90;;;;;;5148827;27;20031;-49
2023/12/11 10:08:10;;;;;;;5.22;1.58;;;9.70;99.90;;;;;;5149435;27;20071;-49
2023/12/11 10:10:38;;;;;;;7.95;1.38;;;9.80;99.90;;;;;;5149928;27;20231;-50
2023/12/11 10:13:05;;;;;;;7.72;1.90;;;9.80;99.90;;;;;;5149497;27;20086;-50
2023/12/11 10:15:32;;;;;;;11.48;1.88;;;9.80;99.90;;;;;;5131531;27;20094;-50
2023/12/11 10:18:09;;;;;;;9.38;2.53;;;9.90;99.90;;;;;;5148340;27;20027;-50
2023/12/11 10:20:36;;;;;;;10.05;1.98;;;9.90;99.90;;;;;;5149139;27;20185;-50
2023/12/11 10:23:14;;;;;;;5.78;1.35;;;9.90;99.90;;;;;;5149250;27;20019;-50
2023/12/11 10:25:41;;;;;;;5.82;1.50;;;9.90;99.90;;;;;;5149518;27;20023;-51
2023/12/11 10:28:10;;;;;;;8.10;1.80;;;9.90;99.90;;;;;;5149637;27;20019;-51
2023/12/11 10:30:58;;;;;;;6.95;1.50;;;10.00;99.90;;;;;;5148434;27;20031;-48
2023/12/11 10:33:25;;;;;;;5.35;1.60;;;10.10;99.90;;;;;;5149066;27;20289;-49
2023/12/11 10:35:51;;;;;;;6.63;1.50;;;10.10;99.90;;;;;;5149151;27;20178;-51
2023/12/11 10:38:21;;;;;;;6.88;1.70;;;10.10;99.90;;;;;;5149246;27;20015;-52
2023/12/11 10:40:49;;;;;;;4.88;1.58;;;10.20;99.90;;;;;;5147960;27;20038;-48
2023/12/11 10:43:14;;;;;;;7.65;1.40;;;10.20;99.90;;;;;;5149348;27;20019;-47
2023/12/11 10:45:40;;;;;;;6.85;1.30;;;10.20;99.90;;;;;;5148787;27;20160;-49
2023/12/11 10:48:06;;;;;;;8.23;1.83;;;10.20;99.90;;;;;;5148841;27;20028;-47
2023/12/11 10:50:33;;;;;;;9.25;1.50;;;10.20;99.90;;;;;;5147870;27;20057;-51
2023/12/11 10:53:00;;;;;;;8.45;1.50;;;10.20;99.90;;;;;;5149061;27;20015;-51
2023/12/11 10:55:26;;;;;;;8.23;1.73;;;10.30;99.90;;;;;;5148779;27;20115;-51
2023/12/11 10:57:52;;;;;;;19.25;6.32;;;10.30;99.90;;;;;;5147684;27;20052;-51
2023/12/11 11:00:20;;;;;;;8.65;2.08;;;10.40;99.90;;;;;;5148760;27;20015;-48
2023/12/11 11:02:46;;;;;;;7.30;1.63;;;10.40;99.90;;;;;;5147461;27;20320;-47
2023/12/11 11:05:12;;;;;;;10.07;2.08;;;10.40;99.90;;;;;;5147744;27;20047;-48
2023/12/11 11:07:43;;;;;;;6.53;1.90;;;10.40;99.90;;;;;;5147384;27;20055;-48
2023/12/11 11:10:20;;;;;;;8.25;2.85;;;10.40;99.90;;;;;;5131045;27;20285;-50
2023/12/11 11:13:16;;;;;;;70.15;34.00;;;10.40;99.90;;;;;;5147602;27;20049;-51
2023/12/11 11:15:41;;;;;;;10.80;2.20;;;10.40;99.90;;;;;;5148136;27;20080;-50
2023/12/11 11:18:09;;;;;;;7.93;1.75;;;10.50;99.90;;;;;;5148263;27;20215;-49
2023/12/11 11:20:39;;;;;;;7.93;1.85;;;10.50;99.90;;;;;;5148178;27;20027;-50
2023/12/11 11:23:16;;;;;;;10.77;3.58;;;10.50;99.90;;;;;;5147148;27;20094;-48
2023/12/11 11:25:53;;;;;;;11.18;3.65;;;10.60;99.90;;;;;;5148120;27;20050;-51
2023/12/11 11:28:38;;;;;;;8.55;1.73;;;10.60;99.90;;;;;;5148061;27;20027;-48
2023/12/11 11:31:07;;;;;;;9.00;1.98;;;10.70;99.90;;;;;;5147990;27;20067;-51
2023/12/11 11:33:50;;;;;;;11.98;2.38;;;10.80;99.90;;;;;;5147825;27;20023;-47
2023/12/11 11:36:17;;;;;;;23.05;11.80;;;10.80;99.90;;;;;;5147069;27;20039;-51
2023/12/11 11:39:00;;;;;;;7.53;3.97;;;10.80;99.90;;;;;;5146428;27;20025;-48
2023/12/11 11:41:27;;;;;;;9.13;1.52;;;11.00;99.90;;;;;;5147582;27;20076;-51
2023/12/11 11:43:57;;;;;;;4.20;1.08;;;11.00;99.90;;;;;;5146780;27;20031;-50
2023/12/11 11:46:23;;;;;;;4.53;1.60;;;11.00;99.90;;;;;;5147803;27;20027;-50
2023/12/11 11:48:49;;;;;;;8.52;2.20;;;10.90;99.90;;;;;;5147698;27;20040;-50
2023/12/11 11:51:17;;;;;;;5.50;1.38;;;10.80;99.90;;;;;;5147460;27;20047;-51
2023/12/11 11:53:43;;;;;;;3.53;1.20;;;10.80;99.90;;;;;;5146588;27;20184;-51
2023/12/11 11:56:09;;;;;;;6.93;1.73;;;10.90;99.90;;;;;;5129342;27;20019;-50
2023/12/11 11:58:35;;;;;;;6.25;1.23;;;10.90;99.90;;;;;;5146360;27;20030;-50
2023/12/11 12:01:04;;;;;;;7.90;1.60;;;11.00;99.90;;;;;;5147132;27;20024;-51
2023/12/11 12:03:43;;;;;;;7.30;1.73;;;11.00;99.90;;;;;;5147378;27;20023;-50
2023/12/11 12:06:09;;;;;;;10.13;2.90;;;10.90;99.90;;;;;;5146830;27;20035;-52
2023/12/11 12:08:36;;;;;;;3.33;1.50;;;10.90;99.90;;;;;;5146565;27;20366;-50
2023/12/11 12:11:03;;;;;;;7.78;1.60;;;11.00;99.90;;;;;;5147076;27;20027;-50
2023/12/11 12:13:38;;;;;;;4.70;1.30;;;11.00;99.90;;;;;;5145592;27;20023;-48
2023/12/11 12:16:04;;;;;;;11.32;5.57;;;11.10;99.90;;;;;;5146871;27;20035;-47
2023/12/11 12:18:30;;;;;;;32.55;19.70;;;11.20;99.90;;;;;;5147392;27;20027;-47
2023/12/11 12:21:05;;;;;;;8.20;1.85;;;11.20;99.90;;;;;;5146445;27;20197;-48
2023/12/11 12:23:31;;;;;;;7.80;3.67;;;11.10;99.90;;;;;;5146682;27;20055;-47
2023/12/11 12:25:59;;;;;;;6.03;2.60;;;11.10;99.90;;;;;;5146647;27;20118;-48
2023/12/11 12:28:26;;;;;;;4.43;2.17;;;11.10;99.90;;;;;;5145574;27;20030;-49
2023/12/11 12:30:51;;;;;;;5.32;1.90;;;11.10;99.90;;;;;;5145514;27;20034;-48
2023/12/11 12:33:18;;;;;;;9.25;3.13;;;11.10;99.90;;;;;;5145500;27;20015;-48
2023/12/11 12:35:44;;;;;;;4.10;1.20;;;11.20;99.90;;;;;;5146454;27;20087;-49
2023/12/11 12:38:10;;;;;;;38.67;24.13;;;11.30;99.90;;;;;;5146684;27;20223;-50
2023/12/11 12:40:36;;;;;;;26.42;13.80;;;11.20;99.90;;;;;;5145203;27;20038;-50
2023/12/11 12:43:14;;;;;;;32.08;18.63;;;11.20;99.90;;;;;;5146086;27;20010;-50
2023/12/11 12:45:40;;;;;;;13.48;7.90;;;11.20;99.90;;;;;;5146517;27;20034;-51
2023/12/11 12:48:08;;;;;;;6.10;3.55;;;11.10;99.90;;;;;;5146761;27;20019;-51